createdAt,value
2017-12-12T00:00:30.101Z,0
2017-12-12T00:01:30.094Z,0
2017-12-12T00:02:30.145Z,0
2017-12-12T00:03:30.152Z,0
2017-12-12T00:04:30.197Z,0
2017-12-12T00:05:30.186Z,0
2017-12-12T00:07:30.200Z,0
2017-12-12T00:08:30.248Z,0
2017-12-12T00:09:29.980Z,0
2017-12-12T00:10:30.303Z,0
2017-12-12T00:11:30.267Z,0
2017-12-12T00:12:44.985Z,0
2017-12-12T00:13:30.031Z,0
2017-12-12T00:15:45.040Z,0
2017-12-12T00:16:30.096Z,0
2017-12-12T00:17:30.124Z,0
2017-12-12T00:18:30.384Z,0
2017-12-12T00:19:30.403Z,0
2017-12-12T00:20:30.430Z,0
2017-12-12T00:21:30.453Z,0
2017-12-12T00:22:30.465Z,0
2017-12-12T00:23:30.499Z,0
2017-12-12T00:24:30.527Z,0
2017-12-12T00:26:30.566Z,0
2017-12-12T00:27:44.972Z,0
2017-12-12T00:28:30.580Z,0
2017-12-12T00:29:45.229Z,0
2017-12-12T00:30:45.311Z,0
2017-12-12T00:31:30.596Z,0
2017-12-12T00:32:30.637Z,0
2017-12-12T00:33:30.659Z,0
2017-12-12T00:34:30.694Z,0
2017-12-12T00:35:30.685Z,0
2017-12-12T00:36:30.733Z,0
2017-12-12T00:37:30.829Z,0
2017-12-12T00:38:30.751Z,0
2017-12-12T00:39:30.791Z,0
2017-12-12T00:40:30.784Z,0
2017-12-12T00:41:30.802Z,0
2017-12-12T00:42:30.807Z,0
2017-12-12T00:43:30.829Z,0
2017-12-12T00:44:30.866Z,0
2017-12-12T00:45:30.883Z,0
2017-12-12T00:46:30.614Z,0
2017-12-12T00:47:30.925Z,0
2017-12-12T00:48:30.935Z,0
2017-12-12T00:49:30.976Z,0
2017-12-12T00:51:30.957Z,0
2017-12-12T00:52:30.951Z,0
2017-12-12T00:53:45.688Z,0
2017-12-12T00:54:31.076Z,0
2017-12-12T00:56:31.052Z,0
2017-12-12T00:57:45.723Z,0
2017-12-12T00:58:31.060Z,0
2017-12-12T00:59:31.068Z,0
2017-12-12T01:00:45.809Z,0
2017-12-12T01:01:30.893Z,0
2017-12-12T01:02:45.799Z,0
2017-12-12T01:03:30.921Z,0
2017-12-12T01:04:31.215Z,0
2017-12-12T01:05:31.187Z,0
2017-12-12T01:06:31.217Z,0
2017-12-12T01:07:31.240Z,0
2017-12-12T01:08:31.268Z,0
2017-12-12T01:09:31.314Z,0
2017-12-12T01:10:31.269Z,0
2017-12-12T01:11:31.313Z,0
2017-12-12T01:12:31.301Z,0
2017-12-12T01:13:31.048Z,0
2017-12-12T01:14:45.747Z,0
2017-12-12T01:15:31.347Z,0
2017-12-12T01:16:31.154Z,0
2017-12-12T01:17:31.410Z,0
2017-12-12T01:18:46.101Z,0
2017-12-12T01:19:31.207Z,0
2017-12-12T01:20:31.442Z,0
2017-12-12T01:21:31.488Z,0
2017-12-12T01:22:31.342Z,0
2017-12-12T01:23:46.174Z,0
2017-12-12T01:24:31.516Z,0
2017-12-12T01:25:31.543Z,0
2017-12-12T01:26:45.995Z,0
2017-12-12T01:27:46.274Z,0
2017-12-12T01:28:46.279Z,0
2017-12-12T01:29:46.260Z,0
2017-12-12T01:30:31.618Z,0
2017-12-12T01:31:31.392Z,0
2017-12-12T01:32:31.653Z,0
2017-12-12T01:33:31.646Z,0
2017-12-12T01:34:45.829Z,0
2017-12-12T01:35:46.127Z,0
2017-12-12T01:36:31.716Z,0
2017-12-12T01:37:31.462Z,0
2017-12-12T01:38:31.770Z,0
2017-12-12T01:39:31.790Z,0
2017-12-12T01:40:46.456Z,0
2017-12-12T01:41:31.841Z,0
2017-12-12T01:42:46.513Z,0
2017-12-12T01:43:31.852Z,0
2017-12-12T01:44:31.862Z,0
2017-12-12T01:45:31.893Z,0
2017-12-12T01:46:31.905Z,0
2017-12-12T01:48:31.919Z,0
2017-12-12T01:49:31.948Z,0
2017-12-12T01:50:46.708Z,0
2017-12-12T01:51:31.709Z,0
2017-12-12T01:52:32.030Z,0
2017-12-12T01:53:31.739Z,0
2017-12-12T01:54:46.748Z,0
2017-12-12T01:55:32.040Z,0
2017-12-12T01:56:46.728Z,0
2017-12-12T01:57:31.839Z,0
2017-12-12T01:58:32.099Z,0
2017-12-12T01:59:32.128Z,0
2017-12-12T02:00:31.868Z,0
2017-12-12T02:01:31.873Z,0
2017-12-12T02:02:32.178Z,0
2017-12-12T02:03:46.868Z,0
2017-12-12T02:04:46.871Z,0
2017-12-12T02:05:46.954Z,0
2017-12-12T02:06:46.891Z,0
2017-12-12T02:07:32.219Z,0
2017-12-12T02:08:32.306Z,0
2017-12-12T02:09:32.052Z,0
2017-12-12T02:10:32.327Z,0
2017-12-12T02:12:32.364Z,0
2017-12-12T02:13:32.449Z,0
2017-12-12T02:14:32.387Z,0
2017-12-12T02:15:47.073Z,0
2017-12-12T02:16:47.096Z,0
2017-12-12T02:17:32.449Z,0
2017-12-12T02:18:47.133Z,0
2017-12-12T02:19:47.145Z,0
2017-12-12T02:20:47.144Z,0
2017-12-12T02:23:32.538Z,0
2017-12-12T02:24:47.298Z,0
2017-12-12T02:26:32.589Z,0
2017-12-12T02:27:47.258Z,0
2017-12-12T02:28:47.314Z,0
2017-12-12T02:29:32.374Z,0
2017-12-12T02:30:32.652Z,0
2017-12-12T02:31:47.098Z,0
2017-12-12T02:32:32.721Z,0
2017-12-12T02:33:32.723Z,0
2017-12-12T02:34:47.170Z,0
2017-12-12T02:36:32.781Z,0
2017-12-12T02:37:47.428Z,0
2017-12-12T02:38:32.784Z,0
2017-12-12T02:39:32.811Z,0
2017-12-12T02:40:47.499Z,0
2017-12-12T02:41:32.851Z,0
2017-12-12T02:42:32.880Z,0
2017-12-12T02:43:32.896Z,0
2017-12-12T02:44:32.888Z,0
2017-12-12T02:45:32.686Z,0
2017-12-12T02:46:32.949Z,0
2017-12-12T02:47:32.944Z,0
2017-12-12T02:48:32.744Z,0
2017-12-12T02:49:32.774Z,0
2017-12-12T02:50:33.045Z,0
2017-12-12T02:51:33.020Z,0
2017-12-12T02:52:32.751Z,0
2017-12-12T02:53:47.467Z,0
2017-12-12T02:54:33.104Z,0
2017-12-12T02:55:33.123Z,0
2017-12-12T02:56:47.804Z,0
2017-12-12T02:58:33.138Z,0
2017-12-12T02:59:32.925Z,0
2017-12-12T03:00:32.945Z,0
2017-12-12T03:01:47.857Z,0
2017-12-12T03:02:32.923Z,0
2017-12-12T03:04:33.297Z,0
2017-12-12T03:05:33.001Z,0
2017-12-12T03:06:47.953Z,0
2017-12-12T03:07:33.031Z,0
2017-12-12T03:08:33.308Z,0
2017-12-12T03:09:47.983Z,0
2017-12-12T03:10:48.082Z,0
2017-12-12T03:11:33.375Z,0
2017-12-12T03:12:48.045Z,0
2017-12-12T03:13:48.080Z,0
2017-12-12T03:14:33.140Z,0
2017-12-12T03:15:33.431Z,0
2017-12-12T03:16:33.483Z,0
2017-12-12T03:17:33.443Z,0
2017-12-12T03:18:48.161Z,0
2017-12-12T03:20:48.216Z,0
2017-12-12T03:21:33.501Z,0
2017-12-12T03:22:48.231Z,0
2017-12-12T03:23:48.268Z,0
2017-12-12T03:24:33.591Z,0
2017-12-12T03:25:48.243Z,0
2017-12-12T03:26:33.607Z,0
2017-12-12T03:27:33.655Z,0
2017-12-12T03:28:33.635Z,0
2017-12-12T03:29:33.456Z,0
2017-12-12T03:30:33.447Z,0
2017-12-12T03:31:33.689Z,0
2017-12-12T03:32:48.399Z,0
2017-12-12T03:33:33.760Z,0
2017-12-12T03:34:33.759Z,0
2017-12-12T03:35:33.793Z,0
2017-12-12T03:36:48.484Z,0
2017-12-12T03:38:33.815Z,0
2017-12-12T03:39:33.577Z,0
2017-12-12T03:40:48.560Z,0
2017-12-12T03:41:33.870Z,0
2017-12-12T03:42:33.639Z,0
2017-12-12T03:43:33.908Z,0
2017-12-12T03:44:33.915Z,0
2017-12-12T03:45:33.933Z,0
2017-12-12T03:47:33.987Z,0
2017-12-12T03:48:48.645Z,0
2017-12-12T03:49:48.670Z,0
2017-12-12T03:50:48.443Z,0
2017-12-12T03:51:34.086Z,0
2017-12-12T03:52:34.112Z,0
2017-12-12T03:53:48.755Z,0
2017-12-12T03:54:34.115Z,0
2017-12-12T03:55:34.129Z,0
2017-12-12T03:56:48.795Z,0
2017-12-12T03:58:34.187Z,0
2017-12-12T03:59:48.846Z,0
2017-12-12T04:00:34.205Z,0
2017-12-12T04:02:34.254Z,0
2017-12-12T04:03:34.025Z,0
2017-12-12T04:04:34.038Z,0
2017-12-12T04:05:34.313Z,0
2017-12-12T04:06:34.305Z,0
2017-12-12T04:07:34.423Z,0
2017-12-12T04:08:48.993Z,0
2017-12-12T04:09:49.001Z,0
2017-12-12T04:10:34.398Z,0
2017-12-12T04:11:34.103Z,0
2017-12-12T04:12:49.058Z,0
2017-12-12T04:13:49.098Z,0
2017-12-12T04:14:49.114Z,0
2017-12-12T04:15:34.496Z,0
2017-12-12T04:16:34.482Z,0
2017-12-12T04:17:34.539Z,0
2017-12-12T04:18:34.539Z,0
2017-12-12T04:19:34.276Z,0
2017-12-12T04:20:34.557Z,0
2017-12-12T04:21:34.322Z,0
2017-12-12T04:22:49.237Z,0
2017-12-12T04:23:49.293Z,0
2017-12-12T04:24:34.638Z,0
2017-12-12T04:25:34.613Z,0
2017-12-12T04:26:34.707Z,0
2017-12-12T04:27:49.341Z,0
2017-12-12T04:28:49.316Z,0
2017-12-12T04:29:34.712Z,0
2017-12-12T04:30:34.717Z,0
2017-12-12T04:31:34.753Z,0
2017-12-12T04:32:34.499Z,0
2017-12-12T04:33:34.823Z,0
2017-12-12T04:34:34.801Z,0
2017-12-12T04:35:34.826Z,0
2017-12-12T04:36:34.825Z,0
2017-12-12T04:37:34.840Z,0
2017-12-12T04:38:34.835Z,0
2017-12-12T04:39:34.877Z,0
2017-12-12T04:40:34.903Z,0
2017-12-12T04:41:34.396Z,0
2017-12-12T04:42:34.924Z,0
2017-12-12T04:43:34.954Z,0
2017-12-12T04:44:49.642Z,0
2017-12-12T04:45:34.468Z,0
2017-12-12T04:46:35.021Z,0
2017-12-12T04:47:35.022Z,0
2017-12-12T04:48:35.050Z,0
2017-12-12T04:49:35.060Z,0
2017-12-12T04:50:35.055Z,0
2017-12-12T04:51:35.084Z,0
2017-12-12T04:52:35.093Z,0
2017-12-12T04:53:35.125Z,0
2017-12-12T04:54:35.164Z,0
2017-12-12T04:55:35.137Z,0
2017-12-12T04:56:35.180Z,0
2017-12-12T04:57:35.249Z,0
2017-12-12T04:58:35.211Z,0
2017-12-12T04:59:49.140Z,0
2017-12-12T05:00:49.904Z,0
2017-12-12T05:01:34.994Z,0
2017-12-12T05:02:35.283Z,0
2017-12-12T05:03:35.065Z,0
2017-12-12T05:04:35.064Z,0
2017-12-12T05:05:35.345Z,0
2017-12-12T05:06:50.028Z,0
2017-12-12T05:07:35.389Z,0
2017-12-12T05:08:35.379Z,0
2017-12-12T05:09:35.146Z,0
2017-12-12T05:10:35.421Z,0
2017-12-12T05:11:35.451Z,0
2017-12-12T05:12:35.437Z,0
2017-12-12T05:13:35.470Z,0
2017-12-12T05:14:35.481Z,0
2017-12-12T05:15:50.195Z,0
2017-12-12T05:16:50.199Z,0
2017-12-12T05:17:35.554Z,0
2017-12-12T05:18:35.586Z,0
2017-12-12T05:19:35.574Z,0
2017-12-12T05:20:50.309Z,0
2017-12-12T05:21:35.622Z,0
2017-12-12T05:22:35.633Z,0
2017-12-12T05:23:35.636Z,0
2017-12-12T05:24:50.359Z,0
2017-12-12T05:25:35.694Z,0
2017-12-12T05:26:35.718Z,0
2017-12-12T05:27:35.756Z,0
2017-12-12T05:28:50.421Z,0
2017-12-12T05:29:50.442Z,0
2017-12-12T05:30:35.784Z,0
2017-12-12T05:31:50.489Z,0
2017-12-12T05:32:35.824Z,0
2017-12-12T05:33:35.825Z,0
2017-12-12T05:34:35.567Z,0
2017-12-12T05:35:35.843Z,0
2017-12-12T05:36:35.896Z,0
2017-12-12T05:37:50.552Z,0
2017-12-12T05:38:35.925Z,0
2017-12-12T05:39:35.929Z,0
2017-12-12T05:40:35.941Z,0
2017-12-12T05:41:35.947Z,0
2017-12-12T05:42:36.003Z,0
2017-12-12T05:43:50.673Z,0
2017-12-12T05:44:36.019Z,0
2017-12-12T05:45:36.019Z,0
2017-12-12T05:47:50.722Z,0
2017-12-12T05:48:36.116Z,0
2017-12-12T05:49:36.127Z,0
2017-12-12T05:50:36.100Z,0
2017-12-12T05:51:36.163Z,0
2017-12-12T05:52:35.905Z,0
2017-12-12T05:53:36.203Z,0
2017-12-12T05:54:36.312Z,0
2017-12-12T05:55:36.238Z,0
2017-12-12T05:57:35.984Z,0
2017-12-12T05:58:36.252Z,0
2017-12-12T05:59:36.031Z,0
2017-12-12T06:00:36.303Z,0
2017-12-12T06:01:36.054Z,0
2017-12-12T06:02:36.352Z,0
2017-12-12T06:03:51.043Z,0
2017-12-12T06:04:36.382Z,0
2017-12-12T06:05:36.347Z,0
2017-12-12T06:06:36.408Z,0
2017-12-12T06:07:36.452Z,0
2017-12-12T06:08:36.421Z,0
2017-12-12T06:09:36.232Z,0
2017-12-12T06:10:36.482Z,0
2017-12-12T06:11:36.495Z,0
2017-12-12T06:12:50.914Z,0
2017-12-12T06:13:36.534Z,0
2017-12-12T06:14:51.312Z,0
2017-12-12T06:15:51.243Z,0
2017-12-12T06:16:36.677Z,0
2017-12-12T06:17:36.628Z,0
2017-12-12T06:18:36.643Z,0
2017-12-12T06:19:51.293Z,0
2017-12-12T06:21:36.669Z,0
2017-12-12T06:22:36.441Z,0
2017-12-12T06:23:36.673Z,0
2017-12-12T06:24:36.728Z,0
2017-12-12T06:25:36.755Z,0
2017-12-12T06:26:36.781Z,0
2017-12-12T06:27:36.784Z,0
2017-12-12T06:28:36.266Z,0
2017-12-12T06:29:36.838Z,0
2017-12-12T06:30:36.879Z,0
2017-12-12T06:31:36.841Z,0
2017-12-12T06:33:36.900Z,0
2017-12-12T06:34:51.320Z,0
2017-12-12T06:35:51.590Z,0
2017-12-12T06:36:36.958Z,0
2017-12-12T06:37:37.001Z,0
2017-12-12T06:38:36.934Z,0
2017-12-12T06:39:51.669Z,0
2017-12-12T06:40:36.750Z,0
2017-12-12T06:41:37.041Z,0
2017-12-12T06:42:37.038Z,0
2017-12-12T06:43:37.059Z,0
2017-12-12T06:44:51.748Z,0
2017-12-12T06:45:37.132Z,0
2017-12-12T06:46:37.108Z,0
2017-12-12T06:47:37.150Z,0
2017-12-12T06:48:37.135Z,0
2017-12-12T06:49:51.552Z,0
2017-12-12T06:50:51.857Z,0
2017-12-12T06:51:36.937Z,0
2017-12-12T06:52:51.598Z,0
2017-12-12T06:53:51.904Z,0
2017-12-12T06:54:37.252Z,0
2017-12-12T06:55:37.017Z,0
2017-12-12T06:56:51.964Z,0
2017-12-12T06:57:37.319Z,0
2017-12-12T06:58:37.351Z,0
2017-12-12T06:59:37.341Z,0
2017-12-12T07:00:37.364Z,0
2017-12-12T07:01:37.141Z,0
2017-12-12T07:02:37.413Z,0
2017-12-12T07:03:37.476Z,0
2017-12-12T07:04:36.681Z,0
2017-12-12T07:05:37.214Z,0
2017-12-12T07:06:37.472Z,0
2017-12-12T07:07:37.514Z,0
2017-12-12T07:08:37.227Z,0
2017-12-12T07:09:51.962Z,0
2017-12-12T07:10:37.541Z,0
2017-12-12T07:11:52.236Z,0
2017-12-12T07:12:37.570Z,0
2017-12-12T07:13:52.275Z,0
2017-12-12T07:14:37.644Z,0
2017-12-12T07:15:37.664Z,0
2017-12-12T07:16:52.326Z,0
2017-12-12T07:17:37.647Z,0
2017-12-12T07:18:37.678Z,0
2017-12-12T07:19:37.460Z,0
2017-12-12T07:20:37.455Z,0
2017-12-12T07:21:37.857Z,0
2017-12-12T07:22:52.434Z,0
2017-12-12T07:23:37.792Z,0
2017-12-12T07:25:37.762Z,0
2017-12-12T07:26:37.852Z,0
2017-12-12T07:27:37.842Z,0
2017-12-12T07:28:37.848Z,0
2017-12-12T07:29:52.596Z,0
2017-12-12T07:30:38.041Z,0
2017-12-12T07:31:52.698Z,0
2017-12-12T07:32:37.918Z,0
2017-12-12T07:33:52.632Z,0
2017-12-12T07:34:52.903Z,0
2017-12-12T07:35:52.651Z,0
2017-12-12T07:36:37.733Z,0
2017-12-12T07:37:52.672Z,0
2017-12-12T07:39:07.105Z,0
2017-12-12T07:39:38.051Z,0
2017-12-12T07:40:52.736Z,0
2017-12-12T07:41:38.112Z,0
2017-12-12T07:42:38.126Z,0
2017-12-12T07:43:37.858Z,0
2017-12-12T07:44:38.107Z,0
2017-12-12T07:45:37.649Z,0
2017-12-12T07:46:38.175Z,0
2017-12-12T07:47:38.472Z,5
2017-12-12T07:48:38.209Z,5
2017-12-12T07:49:38.237Z,5
2017-12-12T07:50:38.223Z,5
2017-12-12T07:51:37.857Z,5
2017-12-12T07:52:52.981Z,5
2017-12-12T07:53:38.305Z,5
2017-12-12T07:54:53.097Z,5
2017-12-12T07:55:38.124Z,5
2017-12-12T07:56:38.461Z,5
2017-12-12T07:57:53.069Z,5
2017-12-12T07:58:53.045Z,5
2017-12-12T07:59:38.382Z,5
2017-12-12T08:01:38.458Z,5
2017-12-12T08:04:52.883Z,10
2017-12-12T08:05:38.547Z,10
2017-12-12T08:06:38.522Z,10
2017-12-12T08:07:38.578Z,10
2017-12-12T08:08:38.555Z,10
2017-12-12T08:09:37.843Z,10
2017-12-12T08:10:53.276Z,10
2017-12-12T08:11:38.350Z,10
2017-12-12T08:12:38.659Z,10
2017-12-12T08:13:38.643Z,10
2017-12-12T08:14:38.712Z,10
2017-12-12T08:15:38.426Z,10
2017-12-12T08:16:38.737Z,10
2017-12-12T08:17:40.081Z,10
2017-12-12T08:18:38.729Z,10
2017-12-12T08:19:38.522Z,10
2017-12-12T08:20:38.778Z,10
2017-12-12T08:21:38.888Z,10
2017-12-12T08:22:53.241Z,10
2017-12-12T08:23:53.562Z,10
2017-12-12T08:24:53.521Z,10
2017-12-12T08:25:53.252Z,5
2017-12-12T08:26:53.650Z,5
2017-12-12T08:27:38.935Z,5
2017-12-12T08:28:38.931Z,5
2017-12-12T08:29:38.935Z,5
2017-12-12T08:31:53.622Z,5
2017-12-12T08:32:39.008Z,5
2017-12-12T08:33:38.767Z,0
2017-12-12T08:34:39.023Z,0
2017-12-12T08:35:39.096Z,0
2017-12-12T08:36:42.957Z,0
2017-12-12T08:37:39.329Z,0
2017-12-12T08:38:39.986Z,0
2017-12-12T08:39:39.136Z,0
2017-12-12T08:40:39.115Z,0
2017-12-12T08:42:53.562Z,5
2017-12-12T08:44:08.533Z,5
2017-12-12T08:44:53.879Z,5
2017-12-12T08:45:39.223Z,5
2017-12-12T08:46:39.233Z,5
2017-12-12T08:47:39.251Z,10
2017-12-12T08:48:39.276Z,10
2017-12-12T08:49:53.953Z,10
2017-12-12T08:50:39.315Z,10
2017-12-12T08:51:53.987Z,10
2017-12-12T08:52:39.336Z,10
2017-12-12T08:53:53.987Z,10
2017-12-12T08:54:39.349Z,10
2017-12-12T08:55:39.399Z,10
2017-12-12T08:56:54.080Z,10
2017-12-12T08:58:08.745Z,10
2017-12-12T08:58:39.426Z,15
2017-12-12T09:01:39.493Z,20
2017-12-12T09:02:39.523Z,20
2017-12-12T09:03:39.600Z,20
2017-12-12T09:04:39.557Z,20
2017-12-12T09:05:39.563Z,20
2017-12-12T09:06:39.596Z,20
2017-12-12T09:07:39.613Z,15
2017-12-12T09:08:39.598Z,20
2017-12-12T09:09:54.317Z,20
2017-12-12T09:10:39.623Z,20
2017-12-12T09:11:39.680Z,20
2017-12-12T09:12:39.712Z,20
2017-12-12T09:13:54.345Z,20
2017-12-12T09:14:39.715Z,20
2017-12-12T09:15:39.462Z,25
2017-12-12T09:16:54.511Z,25
2017-12-12T09:17:39.797Z,25
2017-12-12T09:18:39.805Z,25
2017-12-12T09:19:39.819Z,25
2017-12-12T09:20:39.811Z,20
2017-12-12T09:21:39.830Z,15
2017-12-12T09:22:39.600Z,15
2017-12-12T09:23:54.548Z,10
2017-12-12T09:24:39.827Z,10
2017-12-12T09:25:39.897Z,10
2017-12-12T09:26:39.627Z,10
2017-12-12T09:27:54.585Z,10
2017-12-12T09:28:39.977Z,10
2017-12-12T09:29:54.660Z,10
2017-12-12T09:30:39.727Z,10
2017-12-12T09:31:39.992Z,10
2017-12-12T09:32:40.032Z,10
2017-12-12T09:33:40.056Z,10
2017-12-12T09:34:39.797Z,10
2017-12-12T09:35:54.714Z,15
2017-12-12T09:36:39.868Z,10
2017-12-12T09:37:39.841Z,10
2017-12-12T09:38:39.902Z,10
2017-12-12T09:39:39.888Z,10
2017-12-12T09:40:40.233Z,10
2017-12-12T09:41:54.826Z,10
2017-12-12T09:42:40.175Z,10
2017-12-12T09:43:40.208Z,10
2017-12-12T09:44:40.209Z,10
2017-12-12T09:45:54.862Z,15
2017-12-12T09:46:39.977Z,15
2017-12-12T09:47:40.272Z,15
2017-12-12T09:48:54.918Z,15
2017-12-12T09:49:40.029Z,15
2017-12-12T09:50:54.985Z,20
2017-12-12T09:51:40.359Z,20
2017-12-12T09:52:40.325Z,25
2017-12-12T09:53:40.374Z,30
2017-12-12T09:54:55.054Z,35
2017-12-12T09:55:40.401Z,35
2017-12-12T09:56:40.398Z,40
2017-12-12T09:57:40.211Z,45
2017-12-12T09:58:40.437Z,45
2017-12-12T09:59:40.454Z,40
2017-12-12T10:00:55.153Z,35
2017-12-12T10:01:40.244Z,30
2017-12-12T10:02:54.649Z,25
2017-12-12T10:03:40.552Z,25
2017-12-12T10:04:40.305Z,25
2017-12-12T10:05:55.212Z,20
2017-12-12T10:07:40.726Z,15
2017-12-12T10:08:40.627Z,15
2017-12-12T10:09:40.639Z,15
2017-12-12T10:10:40.633Z,10
2017-12-12T10:11:40.658Z,10
2017-12-12T10:12:55.366Z,10
2017-12-12T10:13:54.849Z,10
2017-12-12T10:14:40.699Z,15
2017-12-12T10:15:40.490Z,15
2017-12-12T10:16:40.492Z,15
2017-12-12T10:17:40.723Z,15
2017-12-12T10:18:40.806Z,20
2017-12-12T10:19:40.857Z,20
2017-12-12T10:20:40.553Z,15
2017-12-12T10:21:55.480Z,20
2017-12-12T10:22:40.846Z,20
2017-12-12T10:23:40.857Z,20
2017-12-12T10:24:40.887Z,20
2017-12-12T10:25:40.612Z,25
2017-12-12T10:26:40.935Z,30
2017-12-12T10:27:40.675Z,35
2017-12-12T10:28:40.947Z,45
2017-12-12T10:29:40.974Z,40
2017-12-12T10:30:55.386Z,40
2017-12-12T10:31:40.698Z,35
2017-12-12T10:32:55.416Z,35
2017-12-12T10:33:41.044Z,35
2017-12-12T10:34:41.000Z,30
2017-12-12T10:35:55.714Z,25
2017-12-12T10:36:55.721Z,30
2017-12-12T10:37:40.568Z,25
2017-12-12T10:39:41.200Z,25
2017-12-12T10:40:41.112Z,20
2017-12-12T10:41:55.842Z,15
2017-12-12T10:42:41.201Z,15
2017-12-12T10:43:41.268Z,15
2017-12-12T10:44:41.181Z,20
2017-12-12T10:45:40.952Z,20
2017-12-12T10:46:41.220Z,15
2017-12-12T10:47:41.000Z,15
2017-12-12T10:49:55.928Z,20
2017-12-12T10:50:41.038Z,20
2017-12-12T10:51:41.063Z,20
2017-12-12T10:52:55.987Z,20
2017-12-12T10:54:56.002Z,20
2017-12-12T10:55:55.812Z,25
2017-12-12T10:57:41.169Z,30
2017-12-12T10:58:41.515Z,25
2017-12-12T10:59:41.430Z,25
2017-12-12T11:00:41.204Z,25
2017-12-12T11:01:41.424Z,25
2017-12-12T11:02:41.199Z,25
2017-12-12T11:03:41.493Z,25
2017-12-12T11:04:56.179Z,20
2017-12-12T11:05:40.768Z,15
2017-12-12T11:06:41.318Z,15
2017-12-12T11:07:41.535Z,15
2017-12-12T11:08:41.329Z,15
2017-12-12T11:09:41.586Z,15
2017-12-12T11:10:41.588Z,10
2017-12-12T11:11:41.338Z,10
2017-12-12T11:12:41.676Z,15
2017-12-12T11:13:56.040Z,15
2017-12-12T11:14:41.676Z,15
2017-12-12T11:15:41.176Z,15
2017-12-12T11:17:41.719Z,15
2017-12-12T11:18:56.140Z,15
2017-12-12T11:19:41.752Z,15
2017-12-12T11:20:56.465Z,15
2017-12-12T11:21:41.794Z,15
2017-12-12T11:22:41.800Z,15
2017-12-12T11:23:56.495Z,15
2017-12-12T11:25:56.247Z,15
2017-12-12T11:26:41.882Z,15
2017-12-12T11:27:41.592Z,15
2017-12-12T11:28:41.634Z,15
2017-12-12T11:29:41.418Z,15
2017-12-12T11:30:41.723Z,10
2017-12-12T11:31:56.629Z,15
2017-12-12T11:32:41.972Z,10
2017-12-12T11:34:41.461Z,10
2017-12-12T11:35:56.704Z,10
2017-12-12T11:37:42.053Z,15
2017-12-12T11:38:42.049Z,10
2017-12-12T11:40:41.847Z,15
2017-12-12T11:41:56.514Z,15
2017-12-12T11:42:42.115Z,15
2017-12-12T11:43:41.887Z,10
2017-12-12T11:44:42.175Z,15
2017-12-12T11:45:41.891Z,15
2017-12-12T11:46:42.210Z,15
2017-12-12T11:47:42.181Z,15
2017-12-12T11:48:42.240Z,15
2017-12-12T11:49:41.996Z,15
2017-12-12T11:50:42.213Z,20
2017-12-12T11:51:42.242Z,20
2017-12-12T11:52:42.282Z,15
2017-12-12T11:53:42.312Z,20
2017-12-12T11:54:42.392Z,20
2017-12-12T11:55:56.964Z,20
2017-12-12T11:56:42.331Z,15
2017-12-12T11:57:42.082Z,20
2017-12-12T11:58:42.092Z,20
2017-12-12T11:59:42.124Z,20
2017-12-12T12:00:42.398Z,20
2017-12-12T12:01:42.164Z,15
2017-12-12T12:02:42.466Z,15
2017-12-12T12:03:42.463Z,15
2017-12-12T12:04:41.965Z,15
2017-12-12T12:05:42.489Z,15
2017-12-12T12:06:42.517Z,15
2017-12-12T12:07:57.180Z,15
2017-12-12T12:08:42.551Z,15
2017-12-12T12:09:42.314Z,15
2017-12-12T12:11:42.563Z,15
2017-12-12T12:12:42.620Z,15
2017-12-12T12:13:42.074Z,15
2017-12-12T12:14:42.628Z,15
2017-12-12T12:15:57.338Z,15
2017-12-12T12:16:42.641Z,15
2017-12-12T12:17:42.669Z,15
2017-12-12T12:18:42.692Z,15
2017-12-12T12:19:57.334Z,15
2017-12-12T12:20:42.706Z,15
2017-12-12T12:21:42.710Z,15
2017-12-12T12:22:57.433Z,15
2017-12-12T12:23:57.437Z,15
2017-12-12T12:24:42.807Z,15
2017-12-12T12:25:42.784Z,15
2017-12-12T12:26:42.542Z,15
2017-12-12T12:27:42.576Z,20
2017-12-12T12:28:42.848Z,20
2017-12-12T12:29:42.600Z,20
2017-12-12T12:30:42.365Z,25
2017-12-12T12:31:42.644Z,25
2017-12-12T12:32:42.891Z,30
2017-12-12T12:33:42.903Z,35
2017-12-12T12:34:42.951Z,35
2017-12-12T12:36:42.469Z,40
2017-12-12T12:37:42.745Z,35
2017-12-12T12:38:42.750Z,30
2017-12-12T12:39:57.662Z,35
2017-12-12T12:40:43.039Z,35
2017-12-12T12:42:43.026Z,30
2017-12-12T12:43:43.126Z,30
2017-12-12T12:45:42.610Z,30
2017-12-12T12:46:43.138Z,30
2017-12-12T12:47:42.918Z,30
2017-12-12T12:48:43.209Z,25
2017-12-12T12:49:57.831Z,25
2017-12-12T12:50:42.671Z,25
2017-12-12T12:51:43.201Z,25
2017-12-12T12:52:42.972Z,20
2017-12-12T12:53:43.248Z,20
2017-12-12T12:54:43.255Z,25
2017-12-12T12:55:57.936Z,25
2017-12-12T12:56:43.067Z,25
2017-12-12T12:58:57.989Z,20
2017-12-12T12:59:58.065Z,20
2017-12-12T13:00:43.376Z,20
2017-12-12T13:02:43.159Z,15
2017-12-12T13:03:43.401Z,15
2017-12-12T13:04:43.420Z,15
2017-12-12T13:05:43.158Z,15
2017-12-12T13:06:43.481Z,15
2017-12-12T13:07:43.225Z,15
2017-12-12T13:08:43.505Z,20
2017-12-12T13:09:43.509Z,20
2017-12-12T13:10:58.196Z,20
2017-12-12T13:11:43.538Z,20
2017-12-12T13:12:43.563Z,15
2017-12-12T13:13:43.601Z,15
2017-12-12T13:14:58.264Z,15
2017-12-12T13:15:43.588Z,15
2017-12-12T13:16:43.632Z,15
2017-12-12T13:17:43.599Z,15
2017-12-12T13:18:43.618Z,15
2017-12-12T13:19:43.680Z,10
2017-12-12T13:20:43.662Z,10
2017-12-12T13:21:43.674Z,10
2017-12-12T13:22:43.425Z,5
2017-12-12T13:23:58.423Z,5
2017-12-12T13:25:43.482Z,10
2017-12-12T13:26:58.488Z,10
2017-12-12T13:27:43.830Z,10
2017-12-12T13:28:43.797Z,10
2017-12-12T13:29:43.826Z,10
2017-12-12T13:30:58.244Z,10
2017-12-12T13:31:43.883Z,10
2017-12-12T13:32:43.853Z,10
2017-12-12T13:33:43.846Z,10
2017-12-12T13:34:58.323Z,10
2017-12-12T13:35:58.591Z,5
2017-12-12T13:36:43.678Z,10
2017-12-12T13:37:43.726Z,10
2017-12-12T13:38:43.992Z,10
2017-12-12T13:39:44.001Z,5
2017-12-12T13:40:43.987Z,5
2017-12-12T13:41:44.001Z,5
2017-12-12T13:42:58.736Z,5
2017-12-12T13:43:43.793Z,5
2017-12-12T13:44:44.048Z,5
2017-12-12T13:45:44.031Z,5
2017-12-12T13:46:44.081Z,5
2017-12-12T13:47:44.098Z,5
2017-12-12T13:48:44.107Z,5
2017-12-12T13:50:44.138Z,0
2017-12-12T13:51:43.936Z,0
2017-12-12T13:52:43.929Z,0
2017-12-12T13:53:44.187Z,0
2017-12-12T13:54:44.222Z,5
2017-12-12T13:55:44.242Z,5
2017-12-12T13:56:44.306Z,5
2017-12-12T13:57:44.273Z,5
2017-12-12T13:59:44.331Z,5
2017-12-12T14:00:58.962Z,0
2017-12-12T14:01:44.084Z,0
2017-12-12T14:02:44.110Z,0
2017-12-12T14:03:44.397Z,0
2017-12-12T14:04:59.026Z,0
2017-12-12T14:05:44.395Z,0
2017-12-12T14:06:44.420Z,0
2017-12-12T14:07:44.387Z,0
2017-12-12T14:08:44.464Z,0
2017-12-12T14:09:44.560Z,0
2017-12-12T14:10:44.513Z,0
2017-12-12T14:11:58.908Z,0
2017-12-12T14:13:59.173Z,0
2017-12-12T14:15:44.530Z,0
2017-12-12T14:16:59.215Z,0
2017-12-12T14:17:44.603Z,0
2017-12-12T14:18:59.264Z,0
2017-12-12T14:19:44.390Z,0
2017-12-12T14:20:44.640Z,0
2017-12-12T14:21:44.697Z,0
2017-12-12T14:22:59.351Z,0
2017-12-12T14:23:59.361Z,0
2017-12-12T14:24:59.107Z,0
2017-12-12T14:25:44.709Z,0
2017-12-12T14:26:44.229Z,0
2017-12-12T14:27:44.727Z,0
2017-12-12T14:28:44.509Z,0
2017-12-12T14:29:44.868Z,0
2017-12-12T14:30:59.488Z,0
2017-12-12T14:31:44.530Z,0
2017-12-12T14:33:44.829Z,0
2017-12-12T14:34:44.897Z,0
2017-12-12T14:35:44.915Z,0
2017-12-12T14:36:44.896Z,0
2017-12-12T14:37:44.878Z,0
2017-12-12T14:38:44.946Z,0
2017-12-12T14:39:44.913Z,0
2017-12-12T14:40:44.692Z,0
2017-12-12T14:41:44.979Z,0
2017-12-12T14:42:44.712Z,0
2017-12-12T14:44:59.698Z,0
2017-12-12T14:45:59.707Z,0
2017-12-12T14:46:45.050Z,0
2017-12-12T14:47:45.053Z,0
2017-12-12T14:48:45.097Z,0
2017-12-12T14:50:44.841Z,0
2017-12-12T14:51:45.122Z,0
2017-12-12T14:52:45.139Z,0
2017-12-12T14:53:45.162Z,0
2017-12-12T14:54:44.931Z,0
2017-12-12T14:55:45.192Z,0
2017-12-12T14:56:59.957Z,0
2017-12-12T14:57:44.687Z,0
2017-12-12T14:58:45.279Z,0
2017-12-12T14:59:59.889Z,0
2017-12-12T15:00:45.251Z,0
2017-12-12T15:01:45.024Z,0
2017-12-12T15:02:45.039Z,0
2017-12-12T15:03:45.319Z,0
2017-12-12T15:04:45.328Z,0
2017-12-12T15:05:45.355Z,0
2017-12-12T15:06:45.117Z,0
2017-12-12T15:08:00.031Z,0
2017-12-12T15:08:45.390Z,0
2017-12-12T15:09:45.426Z,0
2017-12-12T15:10:45.156Z,0
2017-12-12T15:11:45.451Z,0
2017-12-12T15:12:45.473Z,0
2017-12-12T15:14:00.147Z,0
2017-12-12T15:15:00.162Z,0
2017-12-12T15:15:45.536Z,0
2017-12-12T15:16:45.497Z,0
2017-12-12T15:18:00.186Z,0
2017-12-12T15:19:00.206Z,0
2017-12-12T15:19:45.346Z,0
2017-12-12T15:20:45.531Z,0
2017-12-12T15:21:45.605Z,0
2017-12-12T15:22:45.610Z,0
2017-12-12T15:23:45.639Z,0
2017-12-12T15:24:45.668Z,0
2017-12-12T15:25:45.634Z,0
2017-12-12T15:26:45.677Z,0
2017-12-12T15:28:00.375Z,0
2017-12-12T15:28:45.658Z,0
2017-12-12T15:29:45.748Z,0
2017-12-12T15:30:45.760Z,0